Time;durP1;ratioP1;P1;durP2;ratioP2;P2;SDS_P1;SDS_P2;PMS_P1;PMS_P2;Temp;Humidity;BMP_temperature;BMP_pressure;BME280_temperature;BME280_humidity;BME280_pressure;Samples;Min_cycle;Max_cycle;Signal;HPM_P1;HPM_P2
2021/06/03 00:00:53;;;;;;;5.37;3.50;;;22.00;1.00;;;;;;4975775;28;20174;-79
2021/06/03 00:03:20;;;;;;;5.43;3.13;;;22.10;1.00;;;;;;4976470;28;20170;-78
2021/06/03 00:05:49;;;;;;;5.43;3.20;;;22.10;1.00;;;;;;4990796;28;20290;-79
2021/06/03 00:08:16;;;;;;;4.07;3.20;;;22.10;1.00;;;;;;4976659;28;20671;-79
2021/06/03 00:11:08;;;;;;;4.30;3.10;;;22.00;1.00;;;;;;5001580;28;20266;-78
2021/06/03 00:13:36;;;;;;;4.53;3.17;;;22.10;1.00;;;;;;4981027;28;20194;-81
2021/06/03 00:16:06;;;;;;;6.20;3.50;;;22.00;1.00;;;;;;4977027;28;20634;-78
2021/06/03 00:18:32;;;;;;;5.23;3.43;;;21.90;1.00;;;;;;4975368;28;20274;-79
2021/06/03 00:20:58;;;;;;;6.27;3.63;;;21.90;1.00;;;;;;4976552;28;20661;-80
2021/06/03 00:23:24;;;;;;;4.63;3.20;;;21.90;1.00;;;;;;4975937;28;20180;-79
2021/06/03 00:25:51;;;;;;;4.73;3.17;;;22.00;1.00;;;;;;4975260;28;20253;-78
2021/06/03 00:28:22;;;;;;;5.17;3.13;;;21.90;1.00;;;;;;4976106;28;20226;-80
2021/06/03 00:30:48;;;;;;;5.23;2.83;;;21.80;1.00;;;;;;4981627;28;20187;-80
2021/06/03 00:33:14;;;;;;;4.80;3.53;;;21.70;1.00;;;;;;4985071;28;20186;-79
2021/06/03 00:35:40;;;;;;;5.37;3.33;;;21.60;1.00;;;;;;4979597;28;20236;-81
2021/06/03 00:38:06;;;;;;;3.47;2.80;;;21.60;1.00;;;;;;4975828;28;20666;-81
2021/06/03 00:40:32;;;;;;;4.80;3.20;;;21.60;1.00;;;;;;4975941;28;20176;-79
2021/06/03 00:42:58;;;;;;;6.03;3.60;;;21.50;1.00;;;;;;4976243;28;20171;-80
2021/06/03 00:45:29;;;;;;;4.93;3.70;;;21.40;1.00;;;;;;4976271;28;20174;-81
2021/06/03 00:47:56;;;;;;;6.17;3.63;;;21.40;1.00;;;;;;4975740;28;20238;-80
2021/06/03 00:50:43;;;;;;;6.20;4.10;;;21.30;1.00;;;;;;4976992;28;20226;-82
2021/06/03 00:53:11;;;;;;;5.67;3.77;;;21.30;1.00;;;;;;4975504;28;20254;-79
2021/06/03 00:55:39;;;;;;;4.67;3.70;;;21.30;1.00;;;;;;4975502;28;20716;-80
2021/06/03 00:58:05;;;;;;;5.13;3.57;;;21.30;1.00;;;;;;4975290;28;20224;-80
2021/06/03 01:00:32;;;;;;;7.87;4.07;;;21.20;3.70;;;;;;4975521;28;20170;-80
2021/06/03 01:02:58;;;;;;;6.60;3.57;;;21.20;5.70;;;;;;4974962;28;20182;-79
2021/06/03 01:05:28;;;;;;;6.63;3.70;;;21.20;5.70;;;;;;4975402;28;20164;-79
2021/06/03 01:07:57;;;;;;;6.27;3.50;;;21.20;2.60;;;;;;4975001;28;20603;-81
2021/06/03 01:10:36;;;;;;;5.97;3.40;;;21.20;5.30;;;;;;4976261;28;20649;-80
2021/06/03 01:13:07;;;;;;;5.03;3.47;;;21.10;9.50;;;;;;4975622;28;20167;-80
2021/06/03 01:15:33;;;;;;;6.23;3.87;;;21.00;12.30;;;;;;4976137;28;20169;-81
2021/06/03 01:18:05;;;;;;;4.63;3.70;;;21.00;14.70;;;;;;4976637;28;20647;-81
2021/06/03 01:20:33;;;;;;;6.77;3.93;;;21.00;14.00;;;;;;4976199;28;20177;-80
2021/06/03 01:23:08;;;;;;;6.57;4.30;;;21.10;10.50;;;;;;4974840;28;20173;-80
2021/06/03 01:25:34;;;;;;;5.97;3.73;;;21.00;12.70;;;;;;4975186;28;20201;-81
2021/06/03 01:28:03;;;;;;;6.27;4.10;;;21.00;13.70;;;;;;4975604;28;20194;-80
2021/06/03 01:30:42;;;;;;;5.43;4.10;;;21.00;13.40;;;;;;4976153;28;20193;-81
2021/06/03 01:33:12;;;;;;;4.57;3.63;;;21.00;15.10;;;;;;4975619;28;20240;-81
2021/06/03 01:35:42;;;;;;;4.93;3.70;;;21.10;13.70;;;;;;4975908;28;20166;-79
2021/06/03 01:38:12;;;;;;;6.57;3.90;;;21.20;10.40;;;;;;4975686;28;20200;-81
2021/06/03 01:40:41;;;;;;;5.57;4.03;;;21.20;11.50;;;;;;4975301;28;20174;-80
2021/06/03 01:43:11;;;;;;;4.80;3.90;;;21.30;7.40;;;;;;4976248;28;20595;-80
2021/06/03 01:45:37;;;;;;;7.03;3.70;;;21.30;5.90;;;;;;4976127;28;20582;-80
2021/06/03 01:48:06;;;;;;;6.03;3.70;;;21.40;3.40;;;;;;4976503;28;20248;-82
2021/06/03 01:50:33;;;;;;;6.97;4.33;;;21.30;6.20;;;;;;4976678;28;20507;-81
2021/06/03 01:53:00;;;;;;;6.80;4.30;;;21.20;8.30;;;;;;4990762;28;20691;-80
2021/06/03 01:55:27;;;;;;;5.47;4.10;;;21.30;7.00;;;;;;4976377;28;20171;-79
2021/06/03 01:57:53;;;;;;;6.37;4.37;;;21.10;12.40;;;;;;4974462;28;20333;-79
2021/06/03 02:00:21;;;;;;;7.17;4.23;;;21.00;16.40;;;;;;4990238;28;20179;-79
2021/06/03 02:02:47;;;;;;;6.17;4.33;;;21.10;13.30;;;;;;4973977;28;20542;-79
2021/06/03 02:05:13;;;;;;;9.23;4.30;;;21.20;12.70;;;;;;4975769;28;20177;-79
2021/06/03 02:07:39;;;;;;;5.27;3.70;;;21.10;16.40;;;;;;4975126;28;20190;-80
2021/06/03 02:10:07;;;;;;;4.57;3.90;;;21.00;18.30;;;;;;4973822;28;20187;-80
2021/06/03 02:12:36;;;;;;;5.07;4.00;;;20.90;21.80;;;;;;4974611;28;20178;-80
2021/06/03 02:15:05;;;;;;;10.03;4.30;;;20.80;25.90;;;;;;4974148;28;20181;-81
2021/06/03 02:17:34;;;;;;;6.07;4.30;;;20.70;27.50;;;;;;4977831;28;20170;-80
2021/06/03 02:20:04;;;;;;;6.77;4.37;;;20.70;27.00;;;;;;4977805;28;20170;-79
2021/06/03 02:22:31;;;;;;;5.73;4.30;;;20.70;26.00;;;;;;4977942;28;20172;-80
2021/06/03 02:24:57;;;;;;;8.67;4.03;;;20.70;28.10;;;;;;4976993;28;20260;-78
2021/06/03 02:27:23;;;;;;;6.60;4.00;;;20.60;29.40;;;;;;4979021;28;20180;-79
2021/06/03 02:29:50;;;;;;;5.07;4.17;;;20.60;30.70;;;;;;4977806;28;20239;-78
2021/06/03 02:32:16;;;;;;;9.80;4.17;;;20.50;34.20;;;;;;4976966;28;20182;-79
2021/06/03 02:34:45;;;;;;;5.23;3.87;;;20.60;34.00;;;;;;4977202;28;20177;-79
2021/06/03 02:37:12;;;;;;;9.93;4.43;;;20.60;33.50;;;;;;4976963;28;20185;-79
2021/06/03 02:39:39;;;;;;;6.27;4.40;;;20.60;33.50;;;;;;4978574;28;20180;-79
2021/06/03 02:42:05;;;;;;;9.00;4.63;;;20.50;37.40;;;;;;4977811;28;20210;-79
2021/06/03 02:44:39;;;;;;;5.77;4.50;;;20.40;40.80;;;;;;4977576;28;20177;-79
2021/06/03 02:47:06;;;;;;;8.30;4.90;;;20.30;43.60;;;;;;4977674;28;20197;-79
2021/06/03 02:49:34;;;;;;;7.27;4.23;;;20.30;45.60;;;;;;4977265;28;20236;-79
2021/06/03 02:52:04;;;;;;;8.20;4.70;;;20.30;46.10;;;;;;4978236;28;20602;-80
2021/06/03 02:54:30;;;;;;;6.33;4.10;;;20.30;46.90;;;;;;4981864;28;20181;-80
2021/06/03 02:56:57;;;;;;;9.53;4.90;;;20.30;48.20;;;;;;4983694;28;20209;-79
2021/06/03 02:59:22;;;;;;;7.27;5.10;;;20.40;46.70;;;;;;4981861;28;20193;-80
2021/06/03 03:01:48;;;;;;;7.37;4.33;;;20.40;47.10;;;;;;4978896;28;20172;-81
2021/06/03 03:04:14;;;;;;;8.67;4.23;;;20.40;47.00;;;;;;4978779;28;20170;-81
2021/06/03 03:06:40;;;;;;;7.20;4.80;;;20.50;45.90;;;;;;4981641;28;20625;-79
2021/06/03 03:09:06;;;;;;;8.00;5.30;;;20.60;46.70;;;;;;4983331;28;20241;-80
2021/06/03 03:11:35;;;;;;;5.53;4.53;;;20.50;46.40;;;;;;4977611;28;20299;-80
2021/06/03 03:14:04;;;;;;;8.17;4.97;;;20.60;46.00;;;;;;4978131;28;20185;-80
2021/06/03 03:16:29;;;;;;;8.43;5.00;;;20.50;47.40;;;;;;4976272;28;20684;-81
2021/06/03 03:18:55;;;;;;;11.53;5.33;;;20.50;47.20;;;;;;4976291;28;20177;-80
2021/06/03 03:21:21;;;;;;;6.47;4.80;;;20.50;49.30;;;;;;4993378;28;20174;-80
2021/06/03 03:23:47;;;;;;;6.83;4.57;;;20.50;49.80;;;;;;4978336;28;20729;-79
2021/06/03 03:26:12;;;;;;;7.50;5.10;;;20.50;52.10;;;;;;4983010;28;20169;-78
2021/06/03 03:28:38;;;;;;;8.97;4.97;;;20.50;53.00;;;;;;5008577;28;20241;-79
2021/06/03 03:31:07;;;;;;;10.20;5.23;;;20.70;50.60;;;;;;4988162;28;20578;-79
2021/06/03 03:33:34;;;;;;;10.60;5.73;;;20.60;50.90;;;;;;4978068;28;20182;-80
2021/06/03 03:36:00;;;;;;;9.67;5.47;;;20.50;53.00;;;;;;4977684;28;20195;-79
2021/06/03 03:38:25;;;;;;;9.47;5.37;;;20.50;56.00;;;;;;4991592;28;20197;-80
2021/06/03 03:40:54;;;;;;;12.17;5.77;;;20.50;57.40;;;;;;4977760;28;20595;-83
2021/06/03 03:43:24;;;;;;;8.63;5.67;;;20.60;56.80;;;;;;4977756;28;20210;-82
2021/06/03 03:45:50;;;;;;;10.90;5.37;;;20.60;57.20;;;;;;4977682;28;20227;-79
2021/06/03 03:48:16;;;;;;;10.90;5.30;;;20.70;55.70;;;;;;4978094;28;20213;-81
2021/06/03 03:50:42;;;;;;;10.10;5.90;;;20.80;54.30;;;;;;4976642;28;20178;-80
2021/06/03 03:53:08;;;;;;;11.13;5.27;;;20.80;55.10;;;;;;4976788;28;20699;-80
2021/06/03 03:55:34;;;;;;;10.03;5.70;;;20.70;57.20;;;;;;4977669;28;20187;-79
2021/06/03 03:58:03;;;;;;;9.97;5.93;;;20.70;60.00;;;;;;4976316;28;20183;-81
2021/06/03 04:00:34;;;;;;;8.90;5.87;;;20.80;57.70;;;;;;4978226;28;20165;-79
2021/06/03 04:03:02;;;;;;;8.40;5.93;;;20.90;57.30;;;;;;4978018;28;20262;-82
2021/06/03 04:05:28;;;;;;;10.80;6.13;;;21.00;57.10;;;;;;4980227;28;20169;-81
2021/06/03 04:07:54;;;;;;;15.23;6.20;;;21.10;54.70;;;;;;4979435;28;20206;-81
2021/06/03 04:10:22;;;;;;;9.93;6.27;;;21.10;53.10;;;;;;4978757;28;20196;-80
2021/06/03 04:12:48;;;;;;;9.83;6.73;;;21.10;56.30;;;;;;4994293;28;20176;-81
2021/06/03 04:15:15;;;;;;;10.37;6.10;;;21.10;57.60;;;;;;4979140;28;20163;-78
2021/06/03 04:17:41;;;;;;;10.40;6.30;;;21.00;60.10;;;;;;4978596;28;20186;-79
2021/06/03 04:20:10;;;;;;;10.87;6.87;;;20.90;63.50;;;;;;4978586;28;20171;-77
2021/06/03 04:22:36;;;;;;;13.17;6.93;;;20.80;66.60;;;;;;4978942;28;20178;-81
2021/06/03 04:25:05;;;;;;;10.10;7.00;;;20.80;71.30;;;;;;4978358;28;20651;-80
2021/06/03 04:27:31;;;;;;;8.87;7.27;;;20.70;74.30;;;;;;4978034;28;20216;-77
2021/06/03 04:29:57;;;;;;;14.13;7.27;;;20.80;76.40;;;;;;4977258;28;20710;-80
2021/06/03 04:32:22;;;;;;;11.03;7.43;;;20.80;76.90;;;;;;4977647;28;20175;-80
2021/06/03 04:34:48;;;;;;;10.83;7.50;;;20.80;78.80;;;;;;4979191;28;20182;-81
2021/06/03 04:37:15;;;;;;;9.97;7.33;;;20.80;79.30;;;;;;4977805;28;20730;-80
2021/06/03 04:39:40;;;;;;;12.47;7.83;;;20.90;79.10;;;;;;4978145;28;20623;-79
2021/06/03 04:42:07;;;;;;;13.43;7.70;;;21.10;79.20;;;;;;4991997;28;20184;-79
2021/06/03 04:44:33;;;;;;;13.27;7.87;;;21.00;78.70;;;;;;4979005;28;20170;-81
2021/06/03 04:46:58;;;;;;;12.50;8.27;;;21.00;78.30;;;;;;4992368;28;20187;-82
2021/06/03 04:49:24;;;;;;;12.40;8.43;;;21.00;81.80;;;;;;4978267;28;20199;-81
2021/06/03 04:51:50;;;;;;;12.13;8.53;;;21.20;81.40;;;;;;4977874;28;20171;-78
2021/06/03 04:54:15;;;;;;;11.50;8.73;;;21.20;82.60;;;;;;4976758;28;20205;-81
2021/06/03 04:56:41;;;;;;;19.53;9.60;;;21.10;81.50;;;;;;4976373;28;20170;-79
2021/06/03 04:59:07;;;;;;;14.60;9.43;;;21.00;84.60;;;;;;4990680;28;20191;-80
2021/06/03 05:01:33;;;;;;;10.90;9.30;;;20.90;87.30;;;;;;4976950;28;20241;-80
2021/06/03 05:03:59;;;;;;;12.67;9.50;;;20.90;88.50;;;;;;4974657;28;20189;-79
2021/06/03 05:06:25;;;;;;;11.67;8.87;;;20.90;90.00;;;;;;4975664;28;20257;-80
2021/06/03 05:08:51;;;;;;;14.63;8.83;;;20.90;90.20;;;;;;4993653;28;20222;-80
2021/06/03 05:11:17;;;;;;;15.40;9.40;;;20.80;90.90;;;;;;4976232;28;20246;-80
2021/06/03 05:13:43;;;;;;;15.60;9.33;;;20.80;91.80;;;;;;4977977;28;20583;-86
2021/06/03 05:16:08;;;;;;;14.67;9.20;;;20.90;90.50;;;;;;4975949;28;20171;-81
2021/06/03 05:18:38;;;;;;;17.00;10.43;;;21.00;89.90;;;;;;4990380;28;20182;-78
2021/06/03 05:21:05;;;;;;;14.13;9.67;;;21.10;89.10;;;;;;4975966;28;20160;-80
2021/06/03 05:23:30;;;;;;;16.57;9.90;;;20.90;90.40;;;;;;4975272;28;20174;-82
2021/06/03 05:25:56;;;;;;;17.93;10.80;;;20.80;91.40;;;;;;4975511;28;20164;-79
2021/06/03 05:28:22;;;;;;;19.90;9.97;;;20.90;91.70;;;;;;4975169;28;20217;-82
2021/06/03 05:30:47;;;;;;;15.83;10.93;;;20.90;91.30;;;;;;4975697;28;20241;-82
2021/06/03 05:33:13;;;;;;;23.20;11.80;;;20.90;91.50;;;;;;4975704;28;20190;-82
2021/06/03 05:35:39;;;;;;;14.60;11.13;;;20.90;91.90;;;;;;4974786;28;20208;-81
2021/06/03 05:38:04;;;;;;;21.33;11.83;;;20.90;91.80;;;;;;4974686;28;20330;-82
2021/06/03 05:40:32;;;;;;;17.93;11.37;;;20.90;92.10;;;;;;4983911;28;20192;-79
2021/06/03 05:42:59;;;;;;;16.63;11.83;;;20.90;92.60;;;;;;4993012;28;20653;-82
2021/06/03 05:45:26;;;;;;;18.77;11.57;;;20.90;92.50;;;;;;4995310;28;20174;-82
2021/06/03 05:47:52;;;;;;;20.93;12.00;;;21.10;91.60;;;;;;4994045;28;20201;-82
2021/06/03 05:50:21;;;;;;;19.93;12.20;;;21.00;91.30;;;;;;4995554;28;20186;-81
2021/06/03 05:52:47;;;;;;;19.93;12.23;;;21.00;91.30;;;;;;4997850;28;20212;-80
2021/06/03 05:55:15;;;;;;;17.00;12.43;;;21.10;91.90;;;;;;5016365;28;20547;-80
2021/06/03 05:57:42;;;;;;;22.87;13.53;;;20.90;92.70;;;;;;5019557;28;20220;-79
2021/06/03 06:00:16;;;;;;;18.27;12.83;;;20.90;93.20;;;;;;5027794;28;20266;-83
2021/06/03 06:02:46;;;;;;;15.83;12.57;;;20.90;93.10;;;;;;5033185;28;20297;-82
2021/06/03 06:08:04;;;;;;;20.53;13.77;;;20.90;93.10;;;;;;5022497;28;20284;-84
2021/06/03 06:10:37;;;;;;;21.63;13.37;;;20.90;93.60;;;;;;5001807;28;20153;-84
2021/06/03 06:13:03;;;;;;;20.90;13.97;;;21.00;93.50;;;;;;4998074;28;20251;-82
2021/06/03 06:15:30;;;;;;;16.60;13.37;;;21.10;92.50;;;;;;4997162;28;20163;-81
2021/06/03 06:17:56;;;;;;;26.53;14.93;;;21.10;91.50;;;;;;4999718;28;20179;-81
2021/06/03 06:20:22;;;;;;;22.67;14.50;;;21.10;91.20;;;;;;5000165;28;20169;-82
2021/06/03 06:22:51;;;;;;;20.63;13.10;;;21.20;91.10;;;;;;5013097;28;20168;-81
2021/06/03 06:25:18;;;;;;;18.37;14.10;;;21.20;91.20;;;;;;5015676;28;20177;-81
2021/06/03 06:27:45;;;;;;;21.87;13.63;;;21.20;91.40;;;;;;5000237;28;20678;-80
2021/06/03 06:30:20;;;;;;;19.83;13.67;;;21.10;91.70;;;;;;4989954;28;20193;-79
2021/06/03 06:32:46;;;;;;;20.10;13.87;;;21.10;92.30;;;;;;4999360;28;20193;-81
2021/06/03 06:35:12;;;;;;;21.30;13.67;;;21.30;91.20;;;;;;4992728;28;20243;-82
2021/06/03 06:37:39;;;;;;;19.67;14.67;;;21.40;90.40;;;;;;4985505;28;20207;-81
2021/06/03 06:40:09;;;;;;;17.83;13.80;;;21.30;90.00;;;;;;4977679;28;20187;-83
2021/06/03 06:42:35;;;;;;;21.60;14.10;;;21.40;88.40;;;;;;4977906;28;20186;-82
2021/06/03 06:45:05;;;;;;;19.80;13.57;;;21.50;87.40;;;;;;4980568;28;20267;-82
2021/06/03 06:47:31;;;;;;;17.97;13.87;;;21.60;85.80;;;;;;4999752;28;20171;-82
2021/06/03 06:50:00;;;;;;;24.10;13.70;;;21.80;81.00;;;;;;5000534;28;20179;-81
2021/06/03 06:52:26;;;;;;;21.43;12.93;;;21.90;77.10;;;;;;4998950;28;20174;-82
2021/06/03 06:54:52;;;;;;;18.33;11.97;;;22.00;75.40;;;;;;4999837;28;20175;-80
2021/06/03 06:57:19;;;;;;;22.07;13.10;;;22.20;73.80;;;;;;5005390;28;20178;-81
2021/06/03 06:59:46;;;;;;;18.90;13.10;;;22.30;68.90;;;;;;4998433;28;20541;-81
2021/06/03 07:02:12;;;;;;;15.10;13.00;;;22.40;64.60;;;;;;5014119;28;20183;-80
2021/06/03 07:04:38;;;;;;;16.20;12.37;;;22.50;59.70;;;;;;4998969;28;20285;-81
2021/06/03 07:07:05;;;;;;;14.30;12.23;;;22.60;57.70;;;;;;5000305;28;20191;-81
2021/06/03 07:09:30;;;;;;;15.43;11.67;;;22.50;58.30;;;;;;4998593;28;20207;-82
2021/06/03 07:11:56;;;;;;;13.97;11.10;;;22.50;57.70;;;;;;4999839;28;20171;-81
2021/06/03 07:14:22;;;;;;;13.10;11.67;;;22.40;57.60;;;;;;5015820;28;20224;-81
2021/06/03 07:16:47;;;;;;;13.17;11.77;;;22.40;57.50;;;;;;5000207;28;20178;-82
2021/06/03 07:19:14;;;;;;;13.33;11.87;;;22.30;58.20;;;;;;5002376;28;20178;-80
2021/06/03 07:21:40;;;;;;;16.13;11.40;;;22.20;60.30;;;;;;5003604;28;20167;-83
2021/06/03 07:24:09;;;;;;;13.37;11.97;;;22.20;65.20;;;;;;5000732;28;20182;-82
2021/06/03 07:26:34;;;;;;;13.33;11.93;;;22.10;65.60;;;;;;5001874;28;20200;-82
2021/06/03 07:29:04;;;;;;;13.77;11.67;;;22.10;68.80;;;;;;4999416;28;20688;-81
2021/06/03 07:31:35;;;;;;;18.47;11.23;;;22.00;71.00;;;;;;4999721;28;20179;-80
2021/06/03 07:34:06;;;;;;;13.07;10.43;;;21.90;69.80;;;;;;5003229;28;20192;-80
2021/06/03 07:36:35;;;;;;;18.30;11.37;;;22.00;64.90;;;;;;4998834;28;20198;-80
2021/06/03 07:39:06;;;;;;;15.47;11.47;;;22.00;63.90;;;;;;5004738;28;20174;-79
2021/06/03 07:41:33;;;;;;;17.40;11.73;;;22.00;61.00;;;;;;5000918;28;20171;-81
2021/06/03 07:43:59;;;;;;;13.00;11.63;;;22.10;57.30;;;;;;5000796;28;20232;-82
2021/06/03 07:46:25;;;;;;;13.90;11.37;;;22.10;53.00;;;;;;4999031;28;20182;-80
2021/06/03 07:48:50;;;;;;;15.97;12.03;;;22.20;54.60;;;;;;4998374;28;20511;-84
2021/06/03 07:51:16;;;;;;;16.17;13.37;;;22.20;54.80;;;;;;4992376;28;20594;-79
2021/06/03 07:53:42;;;;;;;14.07;12.53;;;22.50;50.40;;;;;;4987219;28;20229;-80
2021/06/03 07:56:07;;;;;;;15.90;12.60;;;22.60;47.80;;;;;;5002308;28;20270;-81
2021/06/03 07:58:33;;;;;;;17.00;13.07;;;22.70;40.30;;;;;;4981429;28;20180;-82
2021/06/03 08:01:00;;;;;;;16.27;12.77;;;22.90;35.40;;;;;;4979333;28;20176;-80
2021/06/03 08:03:27;;;;;;;17.67;13.43;;;23.10;29.20;;;;;;4986060;28;20198;-82
2021/06/03 08:05:53;;;;;;;21.10;16.03;;;23.00;29.40;;;;;;4996839;28;20171;-82
2021/06/03 08:08:19;;;;;;;17.97;13.00;;;22.80;35.10;;;;;;4995868;28;20214;-83
2021/06/03 08:10:44;;;;;;;18.97;14.17;;;22.90;34.40;;;;;;4997826;28;20547;-80
2021/06/03 08:13:11;;;;;;;22.80;14.63;;;23.00;33.40;;;;;;4995141;28;20618;-81
2021/06/03 08:15:41;;;;;;;18.77;13.50;;;23.10;33.40;;;;;;4996783;28;20180;-82
2021/06/03 08:18:08;;;;;;;18.73;13.67;;;23.10;32.70;;;;;;4997167;28;20219;-80
2021/06/03 08:20:39;;;;;;;20.30;14.23;;;23.20;29.20;;;;;;4997260;28;20613;-81
2021/06/03 08:23:07;;;;;;;19.60;14.93;;;23.10;29.40;;;;;;4995114;28;20213;-81
2021/06/03 08:25:34;;;;;;;17.17;14.70;;;23.30;26.40;;;;;;4996964;28;20180;-80
2021/06/03 08:28:00;;;;;;;15.87;14.27;;;23.30;19.20;;;;;;4994885;28;20212;-81
2021/06/03 08:30:26;;;;;;;17.87;16.00;;;22.90;29.30;;;;;;4999698;28;20319;-81
2021/06/03 08:32:53;;;;;;;17.87;15.93;;;22.70;39.50;;;;;;4997955;28;20182;-82
2021/06/03 08:35:23;;;;;;;23.53;16.23;;;22.60;38.50;;;;;;5012538;28;20183;-80
2021/06/03 08:37:53;;;;;;;24.27;16.13;;;22.80;37.30;;;;;;4996131;28;20235;-80
2021/06/03 08:40:23;;;;;;;24.43;15.90;;;22.90;34.30;;;;;;4996748;28;20198;-81
2021/06/03 08:42:54;;;;;;;21.83;15.40;;;23.00;32.00;;;;;;4996208;28;20527;-80
2021/06/03 08:45:23;;;;;;;21.43;15.67;;;23.10;30.00;;;;;;4994815;28;20179;-81
2021/06/03 08:47:49;;;;;;;18.57;16.27;;;23.20;28.50;;;;;;4996779;28;20190;-80
2021/06/03 08:50:15;;;;;;;17.80;15.87;;;23.30;25.50;;;;;;4996645;28;20185;-82
2021/06/03 08:52:41;;;;;;;22.37;16.47;;;23.00;29.40;;;;;;5000234;28;20186;-81
2021/06/03 08:55:13;;;;;;;19.40;17.30;;;23.10;33.00;;;;;;4998817;28;20206;-81
2021/06/03 08:57:38;;;;;;;21.23;15.23;;;23.00;27.20;;;;;;5002929;28;20170;-80
2021/06/03 09:00:05;;;;;;;24.57;17.13;;;23.10;29.50;;;;;;5004953;28;20585;-81
2021/06/03 09:02:31;;;;;;;23.10;15.70;;;23.10;27.80;;;;;;4999043;28;20599;-80
2021/06/03 09:04:58;;;;;;;20.53;15.47;;;23.40;26.30;;;;;;5000269;28;20179;-81
2021/06/03 09:07:37;;;;;;;26.80;15.13;;;23.50;16.50;;;;;;5018337;28;20176;-80
2021/06/03 09:10:28;;;;;;;17.33;15.30;;;23.70;11.40;;;;;;5016307;28;20185;-79
2021/06/03 09:13:07;;;;;;;18.70;15.37;;;23.80;5.30;;;;;;5014611;28;20169;-80
2021/06/03 09:15:34;;;;;;;27.47;15.90;;;23.80;6.10;;;;;;5015586;28;20200;-80
2021/06/03 09:18:02;;;;;;;20.40;14.67;;;24.00;2.70;;;;;;5023873;28;20193;-78
2021/06/03 09:20:28;;;;;;;16.40;14.70;;;24.10;1.00;;;;;;5032035;28;20692;-80
2021/06/03 09:22:54;;;;;;;18.20;14.03;;;24.20;1.00;;;;;;5022602;28;20187;-81
2021/06/03 09:25:41;;;;;;;17.80;16.20;;;24.30;1.00;;;;;;4997907;28;20276;-82
2021/06/03 09:28:26;;;;;;;21.53;15.60;;;24.00;1.00;;;;;;5001700;28;20199;-80
2021/06/03 09:31:10;;;;;;;17.70;14.30;;;23.80;8.00;;;;;;5000252;28;20180;-81
2021/06/03 09:34:04;;;;;;;16.67;14.80;;;23.90;9.00;;;;;;5006961;28;20192;-83
2021/06/03 09:36:39;;;;;;;17.17;15.37;;;24.00;1.70;;;;;;4997046;28;20211;-79
2021/06/03 09:39:23;;;;;;;21.27;16.57;;;24.00;1.30;;;;;;4999320;28;20187;-80
2021/06/03 09:41:59;;;;;;;32.33;28.83;;;24.10;1.00;;;;;;5001232;28;20176;-82
2021/06/03 09:44:38;;;;;;;18.83;16.00;;;24.20;1.00;;;;;;5000771;28;20197;-80
2021/06/03 09:47:15;;;;;;;16.93;14.60;;;24.20;1.00;;;;;;4993447;28;20201;-79
2021/06/03 09:49:52;;;;;;;18.83;15.10;;;24.20;1.00;;;;;;4984892;28;20276;-81
2021/06/03 09:52:19;;;;;;;16.77;15.00;;;24.20;1.00;;;;;;4981462;28;20625;-81
2021/06/03 09:54:51;;;;;;;17.47;15.70;;;24.20;1.00;;;;;;4981637;28;20223;-80
2021/06/03 09:57:18;;;;;;;17.40;15.57;;;24.20;1.00;;;;;;4998925;28;20185;-83
2021/06/03 09:59:50;;;;;;;20.63;16.87;;;24.00;1.00;;;;;;4998601;28;20200;-82
2021/06/03 10:02:21;;;;;;;19.17;15.13;;;24.10;1.00;;;;;;4999206;28;20168;-81
2021/06/03 10:04:54;;;;;;;16.87;12.80;;;24.20;1.00;;;;;;4977624;28;20179;-82
2021/06/03 10:07:24;;;;;;;18.13;15.10;;;24.30;1.00;;;;;;4979704;28;20236;-82
2021/06/03 10:10:02;;;;;;;24.87;15.60;;;24.40;1.00;;;;;;4981534;28;20213;-80
2021/06/03 10:12:41;;;;;;;23.60;13.40;;;24.50;1.00;;;;;;4997890;28;20296;-80
2021/06/03 10:15:22;;;;;;;23.73;12.27;;;24.70;1.00;;;;;;5009324;28;20181;-82
2021/06/03 10:18:00;;;;;;;14.17;11.10;;;24.90;1.00;;;;;;5000597;28;20262;-81
2021/06/03 10:20:46;;;;;;;18.10;12.30;;;24.90;1.00;;;;;;4996574;28;20277;-80
2021/06/03 10:23:15;;;;;;;17.43;12.83;;;24.50;1.00;;;;;;5002816;28;20174;-80
2021/06/03 10:25:43;;;;;;;13.47;11.33;;;24.50;1.00;;;;;;5001900;28;20249;-80
2021/06/03 10:28:14;;;;;;;15.37;12.40;;;24.30;1.00;;;;;;5001539;28;20266;-82
2021/06/03 10:30:44;;;;;;;15.53;12.97;;;24.20;1.00;;;;;;5002758;28;20255;-83
2021/06/03 10:33:21;;;;;;;18.33;14.17;;;24.00;1.00;;;;;;5004322;28;20196;-84
2021/06/03 10:35:49;;;;;;;18.90;13.93;;;23.90;1.00;;;;;;5001134;28;20867;-83
2021/06/03 10:38:20;;;;;;;15.73;13.87;;;24.00;1.00;;;;;;5003049;28;20259;-81
2021/06/03 10:40:49;;;;;;;17.07;12.90;;;24.20;1.00;;;;;;5005632;28;20544;-81
2021/06/03 10:43:21;;;;;;;19.43;13.70;;;24.10;1.00;;;;;;5003758;28;20185;-82
2021/06/03 10:45:47;;;;;;;21.43;14.53;;;24.20;1.00;;;;;;5004889;28;20205;-83
2021/06/03 10:48:19;;;;;;;18.60;12.97;;;24.40;1.00;;;;;;4992544;28;20274;-83
2021/06/03 10:50:50;;;;;;;16.73;14.67;;;24.40;1.00;;;;;;4998289;28;20200;-81
2021/06/03 10:53:20;;;;;;;19.53;15.30;;;24.40;1.00;;;;;;4997694;28;20186;-81
2021/06/03 10:56:19;;;;;;;17.73;15.73;;;24.60;1.00;;;;;;4990089;28;20261;-81
2021/06/03 10:58:44;;;;;;;21.47;17.20;;;24.60;1.00;;;;;;4992943;28;20200;-81
2021/06/03 11:01:13;;;;;;;20.00;17.40;;;24.20;1.00;;;;;;4996851;28;20177;-81
2021/06/03 11:03:59;;;;;;;18.30;14.13;;;24.20;1.00;;;;;;5002794;28;20185;-83
2021/06/03 11:06:28;;;;;;;17.97;13.83;;;24.40;1.00;;;;;;5001344;28;20173;-82
2021/06/03 11:09:01;;;;;;;21.40;14.57;;;24.50;1.00;;;;;;5003273;28;20214;-80
2021/06/03 11:11:37;;;;;;;16.13;12.40;;;24.60;1.00;;;;;;5002536;28;20189;-82
2021/06/03 11:14:23;;;;;;;25.90;14.80;;;24.60;1.00;;;;;;5002164;28;20175;-83
2021/06/03 11:16:52;;;;;;;26.93;13.87;;;24.70;1.00;;;;;;5001122;28;20290;-82
2021/06/03 11:19:23;;;;;;;13.60;12.20;;;24.80;1.00;;;;;;4998975;28;20211;-83
2021/06/03 11:21:53;;;;;;;20.20;12.27;;;24.30;1.00;;;;;;4996666;28;20181;-83
2021/06/03 11:24:39;;;;;;;16.63;11.87;;;24.30;1.00;;;;;;4991620;28;20186;-81
2021/06/03 11:27:10;;;;;;;15.00;12.70;;;24.10;1.00;;;;;;5000272;28;20646;-80
2021/06/03 11:29:50;;;;;;;14.70;12.20;;;24.20;1.00;;;;;;4998594;28;20705;-81
2021/06/03 11:32:20;;;;;;;20.77;11.60;;;24.00;1.00;;;;;;4996549;28;20185;-80
2021/06/03 11:34:50;;;;;;;17.27;12.13;;;24.20;1.00;;;;;;5007544;28;20196;-79
2021/06/03 11:37:39;;;;;;;21.53;12.33;;;24.50;1.00;;;;;;4994686;28;20242;-79
2021/06/03 11:40:05;;;;;;;13.60;11.83;;;24.80;1.00;;;;;;4988248;28;20163;-80
2021/06/03 11:42:39;;;;;;;12.93;11.10;;;24.70;1.00;;;;;;4988374;28;20247;-79
2021/06/03 11:45:29;;;;;;;15.17;11.17;;;24.50;1.00;;;;;;5007047;28;20251;-79
2021/06/03 11:47:59;;;;;;;15.60;12.50;;;24.30;1.00;;;;;;4988966;28;20175;-81
2021/06/03 11:50:25;;;;;;;13.10;11.70;;;24.40;1.00;;;;;;4988204;28;20175;-83
2021/06/03 11:52:54;;;;;;;14.97;12.77;;;24.40;1.00;;;;;;4989688;28;20178;-79
2021/06/03 11:55:42;;;;;;;16.70;14.70;;;24.30;1.00;;;;;;4994553;28;20171;-79
2021/06/03 11:58:18;;;;;;;17.07;13.77;;;24.20;1.00;;;;;;4993748;28;20197;-79
2021/06/03 12:01:04;;;;;;;16.53;13.80;;;24.20;1.00;;;;;;4995701;28;20178;-82
2021/06/03 12:03:44;;;;;;;16.70;13.70;;;24.40;1.00;;;;;;4993382;28;20209;-81
2021/06/03 12:06:34;;;;;;;15.93;12.77;;;24.50;1.00;;;;;;4999478;28;20693;-82
2021/06/03 12:09:14;;;;;;;16.13;12.70;;;24.70;1.00;;;;;;4998402;28;20781;-80
2021/06/03 12:11:45;;;;;;;16.33;13.37;;;24.80;1.00;;;;;;4997435;28;20237;-81
2021/06/03 12:14:19;;;;;;;16.20;14.50;;;24.80;1.00;;;;;;5013428;28;20182;-80
2021/06/03 12:16:53;;;;;;;16.60;13.97;;;24.30;1.00;;;;;;5000953;28;20197;-81
2021/06/03 12:19:22;;;;;;;17.07;13.90;;;24.30;1.00;;;;;;4996781;28;20182;-82
2021/06/03 12:22:00;;;;;;;21.40;16.97;;;24.30;1.00;;;;;;4995090;28;20179;-81
2021/06/03 12:24:46;;;;;;;14.77;13.23;;;24.40;1.00;;;;;;4993239;28;20584;-80
2021/06/03 12:27:42;;;;;;;15.33;13.80;;;24.70;1.00;;;;;;4995930;28;20257;-81
2021/06/03 12:30:41;;;;;;;15.17;12.50;;;24.80;1.00;;;;;;4990675;28;20231;-82
2021/06/03 12:33:29;;;;;;;14.53;11.60;;;25.10;1.00;;;;;;4993445;28;20175;-80
2021/06/03 12:35:55;;;;;;;12.67;10.53;;;25.30;1.00;;;;;;5002324;28;20274;-83
2021/06/03 12:38:41;;;;;;;12.70;10.13;;;25.20;99.90;;;;;;4990653;28;20258;-81
2021/06/03 12:41:22;;;;;;;10.43;9.23;;;25.20;99.90;;;;;;4996521;28;20213;-80
2021/06/03 12:43:54;;;;;;;10.73;9.13;;;25.20;99.90;;;;;;4998973;28;20192;-82
2021/06/03 12:46:39;;;;;;;9.60;8.70;;;25.20;99.90;;;;;;4998154;28;20181;-81
2021/06/03 12:49:09;;;;;;;9.37;8.10;;;25.50;1.00;;;;;;5000922;28;20270;-81
2021/06/03 12:51:45;;;;;;;13.40;9.53;;;25.60;1.00;;;;;;4974099;28;20764;-80
2021/06/03 12:54:17;;;;;;;14.87;10.17;;;25.60;1.00;;;;;;5005048;28;20266;-80